Time;durP1;ratioP1;P1;durP2;ratioP2;P2;SDS_P1;SDS_P2;PMS_P1;PMS_P2;Temp;Humidity;BMP_temperature;BMP_pressure;BME280_temperature;BME280_humidity;BME280_pressure;Samples;Min_cycle;Max_cycle;Signal;HPM_P1;HPM_P2
2020/12/13 06:02:16;;;;;;;1999.90;999.90;;;7.60;99.90;;;;;;5149807;23;20322;-73
2020/12/13 06:04:53;;;;;;;1999.90;999.90;;;7.60;99.90;;;;;;4986872;28;20199;-73
2020/12/13 06:07:27;;;;;;;1999.90;999.90;;;7.60;99.90;;;;;;4994356;28;20203;-73
2020/12/13 06:09:58;;;;;;;1999.90;999.90;;;7.60;99.90;;;;;;4993863;28;20300;-73
2020/12/13 06:12:31;;;;;;;1999.90;999.90;;;7.60;99.90;;;;;;4994123;28;20244;-73
2020/12/13 06:14:59;;;;;;;1999.90;999.90;;;7.60;99.90;;;;;;4994261;28;20378;-73
2020/12/13 06:17:28;;;;;;;1999.90;999.90;;;7.50;99.90;;;;;;5006952;23;20224;-78
2020/12/13 06:19:55;;;;;;;1999.90;999.90;;;7.40;99.90;;;;;;4977766;28;20192;-79
2020/12/13 06:22:24;;;;;;;1999.90;999.90;;;7.40;99.90;;;;;;4977206;28;20205;-79
2020/12/13 06:24:51;;;;;;;1999.90;999.90;;;7.50;99.90;;;;;;4976076;28;20228;-79
2020/12/13 06:27:21;;;;;;;1999.90;999.90;;;7.50;99.90;;;;;;4976102;28;20251;-79
2020/12/13 06:29:48;;;;;;;1999.90;999.90;;;7.60;99.90;;;;;;4976303;28;20271;-79
2020/12/13 06:32:15;;;;;;;1999.90;999.90;;;7.60;99.90;;;;;;4975982;28;20201;-78
2020/12/13 06:34:44;;;;;;;1999.90;999.90;;;7.60;99.90;;;;;;4975910;28;20231;-78
2020/12/13 06:37:12;;;;;;;1999.90;999.90;;;7.60;99.90;;;;;;4976687;28;20224;-79
2020/12/13 06:39:41;;;;;;;1999.90;999.90;;;7.70;99.90;;;;;;4977638;28;20228;-79
2020/12/13 06:42:08;;;;;;;1999.90;999.90;;;7.80;99.90;;;;;;4976383;28;20209;-78
2020/12/13 06:44:35;;;;;;;1999.90;999.90;;;7.80;99.90;;;;;;4977317;28;20205;-79
2020/12/13 06:47:21;;;;;;;1999.90;999.90;;;7.90;99.90;;;;;;4975688;28;20601;-79
2020/12/13 06:49:49;;;;;;;1999.90;999.90;;;7.90;99.90;;;;;;4977136;28;20236;-79
2020/12/13 06:52:30;;;;;;;1999.90;999.90;;;7.90;99.90;;;;;;4977859;28;20692;-79
2020/12/13 06:54:59;;;;;;;1999.90;999.90;;;7.90;99.90;;;;;;4974732;28;20263;-77
2020/12/13 06:57:30;;;;;;;1999.90;999.90;;;7.90;99.90;;;;;;4974789;28;20235;-78
2020/12/13 06:59:57;;;;;;;1999.90;999.90;;;7.90;99.90;;;;;;4977113;28;20208;-79
2020/12/13 07:02:45;;;;;;;1999.90;999.90;;;7.90;99.90;;;;;;4976952;28;20244;-79
2020/12/13 07:05:14;;;;;;;1999.90;999.90;;;7.80;99.90;;;;;;4975347;28;20220;-80
2020/12/13 07:07:43;;;;;;;1999.90;999.90;;;7.80;99.90;;;;;;4976252;28;20228;-79
2020/12/13 07:10:10;;;;;;;1999.90;999.90;;;7.80;99.90;;;;;;4974938;28;20348;-81
2020/12/13 07:12:37;;;;;;;1999.90;999.90;;;7.80;99.90;;;;;;4974708;28;20204;-77
2020/12/13 07:15:15;;;;;;;1999.90;999.90;;;7.70;99.90;;;;;;4974988;28;20225;-75
2020/12/13 07:17:43;;;;;;;1999.90;999.90;;;7.70;99.90;;;;;;4971955;28;20283;-77
2020/12/13 07:20:11;;;;;;;1999.90;999.90;;;7.70;99.90;;;;;;4974455;28;20208;-77
2020/12/13 07:22:39;;;;;;;1999.90;999.90;;;7.70;99.90;;;;;;4974426;28;20621;-77
2020/12/13 07:25:06;;;;;;;1999.90;999.90;;;7.80;99.90;;;;;;4974072;28;20197;-76
2020/12/13 07:27:34;;;;;;;1999.90;999.90;;;7.80;99.90;;;;;;4974182;28;20232;-77
2020/12/13 07:30:01;;;;;;;1999.90;999.90;;;7.90;99.90;;;;;;4973935;28;20259;-77
2020/12/13 07:32:28;;;;;;;1999.90;999.90;;;7.90;99.90;;;;;;4973988;28;20236;-76
2020/12/13 07:34:55;;;;;;;1999.90;999.90;;;7.90;99.90;;;;;;4975311;28;20252;-79
2020/12/13 07:37:23;;;;;;;1999.90;999.90;;;7.80;99.90;;;;;;4974728;28;20768;-79
2020/12/13 07:39:51;;;;;;;1999.90;999.90;;;7.80;99.90;;;;;;4973251;28;20740;-76
2020/12/13 07:42:18;;;;;;;1999.90;999.90;;;7.80;99.90;;;;;;4973517;28;20200;-76
2020/12/13 07:44:45;;;;;;;1999.90;999.90;;;7.80;99.90;;;;;;4973340;28;20296;-77
2020/12/13 07:47:12;;;;;;;1999.90;999.90;;;7.90;99.90;;;;;;4973065;28;20714;-77
2020/12/13 07:49:39;;;;;;;1999.90;999.90;;;7.90;99.90;;;;;;4972985;28;20240;-76
2020/12/13 07:52:06;;;;;;;1999.90;999.90;;;8.00;99.90;;;;;;4973495;28;20213;-77
2020/12/13 07:54:33;;;;;;;1999.90;999.90;;;8.00;99.90;;;;;;4973581;28;20608;-76
2020/12/13 07:57:11;;;;;;;1999.90;999.90;;;8.00;99.90;;;;;;4973576;28;20237;-77
2020/12/13 07:59:38;;;;;;;1999.90;999.90;;;8.10;99.90;;;;;;4973994;28;20212;-75
2020/12/13 08:02:06;;;;;;;1999.90;999.90;;;8.20;99.90;;;;;;4974224;28;20212;-78
2020/12/13 08:04:34;;;;;;;1999.90;999.90;;;8.20;99.90;;;;;;4973780;28;20200;-78
2020/12/13 08:07:02;;;;;;;1999.90;999.90;;;8.30;99.90;;;;;;4972800;28;20229;-74
2020/12/13 08:09:29;;;;;;;1999.90;999.90;;;8.20;99.90;;;;;;4973686;28;20208;-76
2020/12/13 08:11:57;;;;;;;1999.90;999.90;;;8.20;99.90;;;;;;4973895;28;20216;-76
2020/12/13 08:14:26;;;;;;;1999.90;999.90;;;8.10;99.90;;;;;;4973399;28;20700;-77
2020/12/13 08:16:54;;;;;;;1999.90;999.90;;;8.20;99.90;;;;;;4973728;28;20236;-78
2020/12/13 08:19:25;;;;;;;1999.90;999.90;;;8.20;99.90;;;;;;4973706;28;20235;-79
2020/12/13 08:21:58;;;;;;;1999.90;999.90;;;8.40;99.90;;;;;;4973536;28;20204;-77
2020/12/13 08:24:26;;;;;;;1999.90;999.90;;;8.40;99.90;;;;;;4973379;28;20220;-78
2020/12/13 08:26:56;;;;;;;1999.90;999.90;;;8.60;99.90;;;;;;4974716;28;20283;-79
2020/12/13 08:29:24;;;;;;;1999.90;999.90;;;8.70;99.90;;;;;;4973881;28;20583;-76
2020/12/13 08:31:52;;;;;;;1999.90;999.90;;;8.70;99.90;;;;;;4974233;28;20295;-77
2020/12/13 08:34:24;;;;;;;1999.90;999.90;;;8.70;99.90;;;;;;4973593;28;20224;-76
2020/12/13 08:36:54;;;;;;;1999.90;999.90;;;8.80;99.90;;;;;;4972797;28;20770;-76
2020/12/13 08:39:27;;;;;;;1999.90;999.90;;;8.80;99.90;;;;;;4972914;28;20279;-77
2020/12/13 08:41:55;;;;;;;1999.90;999.90;;;8.70;99.90;;;;;;4973131;28;20271;-75
2020/12/13 08:44:31;;;;;;;1999.90;999.90;;;8.80;99.90;;;;;;4973678;28;20235;-74
2020/12/13 08:47:01;;;;;;;1999.90;999.90;;;8.90;99.90;;;;;;4972810;28;20235;-74
2020/12/13 08:49:30;;;;;;;1999.90;999.90;;;8.80;99.90;;;;;;4972600;28;20271;-72
2020/12/13 08:51:58;;;;;;;1999.90;999.90;;;8.80;99.90;;;;;;4972678;28;20204;-73
2020/12/13 08:54:27;;;;;;;1999.90;999.90;;;8.90;99.90;;;;;;4972440;28;20693;-74
2020/12/13 08:57:03;;;;;;;1999.90;999.90;;;8.90;99.90;;;;;;4973016;28;20231;-77
2020/12/13 08:59:31;;;;;;;1999.90;999.90;;;8.90;99.90;;;;;;4973555;28;20205;-78
2020/12/13 09:02:02;;;;;;;1999.90;999.90;;;9.00;99.90;;;;;;4973102;28;20230;-77
2020/12/13 09:04:30;;;;;;;1999.90;999.90;;;8.90;99.90;;;;;;4973015;28;20259;-75
2020/12/13 09:06:59;;;;;;;1999.90;999.90;;;8.90;99.90;;;;;;4972821;28;20236;-79
2020/12/13 09:09:30;;;;;;;1999.90;999.90;;;8.90;99.90;;;;;;4973717;28;20205;-78
2020/12/13 09:11:58;;;;;;;1999.90;999.90;;;8.90;99.90;;;;;;4973197;28;20217;-79
2020/12/13 09:14:27;;;;;;;1999.90;999.90;;;8.90;99.90;;;;;;4973247;28;20767;-76
2020/12/13 09:16:56;;;;;;;1999.90;999.90;;;9.00;99.90;;;;;;4972379;28;20287;-77
2020/12/13 09:19:23;;;;;;;1999.90;999.90;;;9.00;99.90;;;;;;4974675;28;20629;-78
2020/12/13 09:21:52;;;;;;;1999.90;999.90;;;9.00;99.90;;;;;;4976772;28;20208;-78
2020/12/13 09:24:21;;;;;;;1999.90;999.90;;;9.10;99.90;;;;;;4976767;28;20197;-78
2020/12/13 09:27:03;;;;;;;1999.90;999.90;;;9.20;99.90;;;;;;4956644;29;20225;-76
2020/12/13 09:29:32;;;;;;;1999.90;999.90;;;9.20;99.90;;;;;;4956544;29;20256;-75
2020/12/13 09:32:00;;;;;;;1999.90;999.90;;;9.20;99.90;;;;;;4956409;29;20264;-75
2020/12/13 09:34:27;;;;;;;1999.90;999.90;;;9.20;99.90;;;;;;4956439;29;20229;-74
2020/12/13 09:36:55;;;;;;;1999.90;999.90;;;9.40;99.90;;;;;;4957032;29;20221;-77
2020/12/13 09:39:29;;;;;;;1999.90;999.90;;;9.40;99.90;;;;;;4973515;28;20199;-75
2020/12/13 09:41:56;;;;;;;1999.90;999.90;;;9.50;99.90;;;;;;4976678;28;20642;-75
2020/12/13 09:44:23;;;;;;;1999.90;999.90;;;9.60;99.90;;;;;;4975870;28;20246;-76
2020/12/13 09:46:54;;;;;;;1999.90;999.90;;;9.60;99.90;;;;;;4975759;28;20232;-75
2020/12/13 09:49:23;;;;;;;1999.90;999.90;;;9.60;99.90;;;;;;4976490;28;20235;-79
2020/12/13 09:51:49;;;;;;;1999.90;999.90;;;9.60;99.90;;;;;;4979467;28;20193;-78
2020/12/13 09:54:16;;;;;;;1999.90;999.90;;;9.50;99.90;;;;;;4976017;28;20205;-77
2020/12/13 09:56:43;;;;;;;1999.90;999.90;;;9.50;99.90;;;;;;4975516;28;20225;-79
2020/12/13 09:59:10;;;;;;;1999.90;999.90;;;9.60;99.90;;;;;;4977464;28;20263;-77
2020/12/13 10:01:37;;;;;;;1999.90;999.90;;;9.70;99.90;;;;;;4975961;28;20271;-78
2020/12/13 10:04:04;;;;;;;1999.90;999.90;;;9.60;99.90;;;;;;4978529;28;20707;-81
2020/12/13 10:09:16;;;;;;;1999.90;999.90;;;9.50;99.90;;;;;;4975990;28;20205;-80
2020/12/13 10:11:45;;;;;;;1999.90;999.90;;;9.50;99.90;;;;;;4976949;28;20207;-79
2020/12/13 10:14:14;;;;;;;1999.90;999.90;;;9.60;99.90;;;;;;4977551;28;20200;-78
2020/12/13 10:16:43;;;;;;;1999.90;999.90;;;9.70;99.90;;;;;;4978226;28;20243;-79
2020/12/13 10:19:11;;;;;;;1999.90;999.90;;;9.80;99.90;;;;;;4979187;28;20255;-78
2020/12/13 10:21:38;;;;;;;1999.90;999.90;;;9.80;99.90;;;;;;4978662;28;20201;-79
2020/12/13 10:24:06;;;;;;;1999.90;999.90;;;9.70;99.90;;;;;;4976777;28;20221;-77
2020/12/13 10:26:36;;;;;;;1999.90;999.90;;;9.60;99.90;;;;;;4976942;28;20228;-77
2020/12/13 10:29:04;;;;;;;1999.90;999.90;;;9.40;99.90;;;;;;4975828;28;20201;-77
2020/12/13 10:31:32;;;;;;;1999.90;999.90;;;9.40;99.90;;;;;;4974208;28;20236;-78
2020/12/13 10:34:01;;;;;;;1999.90;999.90;;;9.40;99.90;;;;;;4975800;28;20280;-78
2020/12/13 10:36:28;;;;;;;1999.90;999.90;;;9.40;99.90;;;;;;4975944;28;20647;-78
2020/12/13 10:38:55;;;;;;;1999.90;999.90;;;9.30;99.90;;;;;;4976977;28;20213;-78
2020/12/13 10:41:22;;;;;;;1999.90;999.90;;;9.30;99.90;;;;;;4976239;28;20204;-78
2020/12/13 10:43:50;;;;;;;1999.90;999.90;;;9.30;99.90;;;;;;4977199;28;20271;-77
2020/12/13 10:46:17;;;;;;;1999.90;999.90;;;9.40;99.90;;;;;;4975016;28;20208;-78
2020/12/13 10:48:45;;;;;;;1999.90;999.90;;;9.50;99.90;;;;;;4977497;28;20215;-76
2020/12/13 10:51:14;;;;;;;1999.90;999.90;;;9.50;99.90;;;;;;4974896;28;20239;-78
2020/12/13 10:53:41;;;;;;;1999.90;999.90;;;9.50;99.90;;;;;;4975169;28;20204;-77
2020/12/13 10:56:09;;;;;;;1999.90;999.90;;;9.60;99.90;;;;;;4975028;28;20224;-78
2020/12/13 10:58:38;;;;;;;1999.90;999.90;;;9.60;99.90;;;;;;4975743;28;20209;-77
2020/12/13 11:01:05;;;;;;;1999.90;999.90;;;9.60;99.90;;;;;;4974260;28;20252;-78
2020/12/13 11:03:32;;;;;;;1999.90;999.90;;;9.60;99.90;;;;;;4976002;28;20220;-76
2020/12/13 11:05:59;;;;;;;1999.90;999.90;;;9.60;99.90;;;;;;4973603;28;20205;-76
2020/12/13 11:08:26;;;;;;;1999.90;999.90;;;9.60;99.90;;;;;;4973483;28;20648;-75
2020/12/13 11:10:55;;;;;;;1999.90;999.90;;;9.60;99.90;;;;;;4973622;28;20205;-76
2020/12/13 11:13:23;;;;;;;1999.90;999.90;;;9.60;99.90;;;;;;4973682;28;20205;-76
2020/12/13 11:15:50;;;;;;;1999.90;999.90;;;9.60;99.90;;;;;;4973251;28;20724;-77
2020/12/13 11:18:17;;;;;;;1999.90;999.90;;;9.60;99.90;;;;;;4972728;28;20283;-76
2020/12/13 11:20:44;;;;;;;1999.90;999.90;;;9.60;99.90;;;;;;4973412;28;20260;-77
2020/12/13 11:23:11;;;;;;;1999.90;999.90;;;9.60;99.90;;;;;;4973948;28;20204;-75
2020/12/13 11:25:38;;;;;;;1999.90;999.90;;;9.50;99.90;;;;;;4973522;28;20259;-75
2020/12/13 11:28:06;;;;;;;1999.90;999.90;;;9.60;99.90;;;;;;4973008;28;20776;-75
2020/12/13 11:30:34;;;;;;;1999.90;999.90;;;9.70;99.90;;;;;;4973235;28;20213;-75
2020/12/13 11:33:05;;;;;;;1999.90;999.90;;;9.80;99.90;;;;;;4968079;28;20670;-76
2020/12/13 11:35:32;;;;;;;1999.90;999.90;;;9.80;99.90;;;;;;4980133;28;20715;-75
2020/12/13 11:38:00;;;;;;;1999.90;999.90;;;9.90;99.90;;;;;;4978196;28;20227;-76
2020/12/13 11:40:27;;;;;;;1999.90;999.90;;;9.90;99.90;;;;;;4970614;28;20255;-76
2020/12/13 11:42:55;;;;;;;1999.90;999.90;;;9.90;99.90;;;;;;4971384;28;20197;-74
2020/12/13 11:45:23;;;;;;;1999.90;999.90;;;9.90;99.90;;;;;;4976926;28;20713;-74
2020/12/13 11:47:51;;;;;;;1999.90;999.90;;;9.80;99.90;;;;;;4971991;28;20217;-76
2020/12/13 11:50:18;;;;;;;1999.90;999.90;;;9.60;99.90;;;;;;4972853;28;20205;-78
2020/12/13 11:52:45;;;;;;;1999.90;999.90;;;9.40;99.90;;;;;;4972188;28;20224;-79
2020/12/13 11:55:12;;;;;;;1999.90;999.90;;;9.40;99.90;;;;;;4972061;28;20275;-78
2020/12/13 11:57:39;;;;;;;1999.90;999.90;;;9.30;99.90;;;;;;4969572;28;20274;-77
2020/12/13 12:00:17;;;;;;;1999.90;999.90;;;9.50;99.90;;;;;;4971362;28;20210;-80
2020/12/13 12:02:49;;;;;;;1999.90;999.90;;;9.30;99.90;;;;;;4966930;28;20290;-78
2020/12/13 12:05:17;;;;;;;1999.90;999.90;;;9.30;99.90;;;;;;4970591;28;20216;-75
2020/12/13 12:07:44;;;;;;;1999.90;999.90;;;9.40;99.90;;;;;;4969642;28;20275;-76
2020/12/13 12:10:12;;;;;;;1999.90;999.90;;;9.40;99.90;;;;;;4971852;28;20408;-75
2020/12/13 12:12:39;;;;;;;1999.90;999.90;;;9.50;99.90;;;;;;4972029;28;20227;-76
2020/12/13 12:15:06;;;;;;;1999.90;999.90;;;9.50;99.90;;;;;;4970763;28;20284;-76
2020/12/13 12:17:34;;;;;;;1999.90;999.90;;;9.50;99.90;;;;;;4983730;23;20248;-74
2020/12/13 12:20:02;;;;;;;1999.90;999.90;;;9.60;99.90;;;;;;4963577;28;20200;-74
2020/12/13 12:22:30;;;;;;;1999.90;999.90;;;9.60;99.90;;;;;;4968511;28;20197;-74
2020/12/13 12:24:57;;;;;;;1999.90;999.90;;;9.70;99.90;;;;;;4970808;28;20236;-75
2020/12/13 12:27:26;;;;;;;1999.90;999.90;;;9.70;99.90;;;;;;4971048;28;20751;-74
2020/12/13 12:29:53;;;;;;;1999.90;999.90;;;9.80;99.90;;;;;;4971062;28;20204;-74
2020/12/13 12:32:20;;;;;;;1999.90;999.90;;;9.80;99.90;;;;;;4972025;28;20200;-74
2020/12/13 12:34:47;;;;;;;1999.90;999.90;;;9.90;99.90;;;;;;4972467;28;20701;-74
2020/12/13 12:37:15;;;;;;;1999.90;999.90;;;9.90;99.90;;;;;;4972456;28;20358;-73
2020/12/13 12:39:45;;;;;;;1999.90;999.90;;;9.90;99.90;;;;;;4972775;28;20211;-74
2020/12/13 12:42:13;;;;;;;1999.90;999.90;;;9.90;99.90;;;;;;4972286;28;20263;-74
2020/12/13 12:44:39;;;;;;;1999.90;999.90;;;9.90;99.90;;;;;;4972744;28;20204;-74
2020/12/13 12:47:07;;;;;;;1999.90;999.90;;;9.70;99.90;;;;;;4972281;28;20263;-74
2020/12/13 12:49:34;;;;;;;1999.90;999.90;;;10.00;99.90;;;;;;4972255;28;20255;-74
2020/12/13 12:52:01;;;;;;;1999.90;999.90;;;9.90;99.90;;;;;;4972197;28;20211;-74
2020/12/13 12:54:31;;;;;;;1999.90;999.90;;;9.90;99.90;;;;;;4975093;28;20216;-75
2020/12/13 12:57:01;;;;;;;1999.90;999.90;;;9.80;99.90;;;;;;4976192;28;20224;-75
2020/12/13 12:59:33;;;;;;;1999.90;999.90;;;;;;;;;;4975766;28;20625;-74
2020/12/13 13:02:02;;;;;;;1999.90;999.90;;;10.00;99.90;;;;;;4975476;28;20259;-74
2020/12/13 13:04:34;;;;;;;1999.90;999.90;;;;;;;;;;4975715;28;20239;-74
2020/12/13 13:07:11;;;;;;;1999.90;999.90;;;10.00;99.90;;;;;;4955499;29;20252;-74
2020/12/13 13:09:42;;;;;;;1999.90;999.90;;;9.90;99.90;;;;;;4956573;29;20212;-75
2020/12/13 13:12:10;;;;;;;1999.90;999.90;;;10.00;99.90;;;;;;4956542;29;20209;-75
2020/12/13 13:14:36;;;;;;;1999.90;999.90;;;10.00;99.90;;;;;;4956402;29;20213;-75
2020/12/13 13:17:06;;;;;;;1999.90;999.90;;;10.00;99.90;;;;;;4955580;29;20221;-75
2020/12/13 13:19:33;;;;;;;1999.90;999.90;;;9.90;99.90;;;;;;4956266;29;20213;-74
2020/12/13 13:22:02;;;;;;;1999.90;999.90;;;10.10;99.90;;;;;;4956678;29;20283;-73
2020/12/13 13:24:29;;;;;;;1999.90;999.90;;;10.00;99.90;;;;;;4956550;29;20280;-74
2020/12/13 13:26:56;;;;;;;1999.90;999.90;;;10.00;99.90;;;;;;4956272;29;20215;-75
2020/12/13 13:29:24;;;;;;;1999.90;999.90;;;9.90;99.90;;;;;;4955702;29;20603;-75
2020/12/13 13:31:54;;;;;;;1999.90;999.90;;;10.00;99.90;;;;;;4956624;29;20208;-75
2020/12/13 13:34:22;;;;;;;1999.90;999.90;;;9.80;99.90;;;;;;4956403;29;20209;-75
2020/12/13 13:36:49;;;;;;;1999.90;999.90;;;9.90;99.90;;;;;;4956243;29;20221;-75
2020/12/13 13:39:16;;;;;;;1999.90;999.90;;;10.10;99.90;;;;;;4955581;29;20789;-76
2020/12/13 13:41:42;;;;;;;1999.90;999.90;;;10.00;99.90;;;;;;4955813;29;20257;-75
2020/12/13 13:44:14;;;;;;;1999.90;999.90;;;10.20;99.90;;;;;;4955739;29;20216;-75
2020/12/13 13:46:51;;;;;;;1999.90;999.90;;;10.00;99.90;;;;;;4950686;29;20618;-76
2020/12/13 13:52:02;;;;;;;1999.90;999.90;;;9.90;99.90;;;;;;4935479;29;20205;-76
2020/12/13 13:54:31;;;;;;;1999.90;999.90;;;10.00;99.90;;;;;;4935262;29;20209;-76
2020/12/13 13:57:01;;;;;;;1999.90;999.90;;;10.00;99.90;;;;;;4941278;29;20221;-76
2020/12/13 13:59:30;;;;;;;1999.90;999.90;;;10.00;99.90;;;;;;4954057;29;20769;-75
2020/12/13 14:01:58;;;;;;;1999.90;999.90;;;10.00;99.90;;;;;;4954526;29;20737;-76
2020/12/13 14:04:27;;;;;;;1999.90;999.90;;;10.00;99.90;;;;;;4953978;28;20615;-76
2020/12/13 14:09:46;;;;;;;1999.90;999.90;;;10.00;99.90;;;;;;4954451;29;20613;-75
2020/12/13 14:12:14;;;;;;;1999.90;999.90;;;9.90;99.90;;;;;;4954996;29;20217;-76
2020/12/13 14:14:42;;;;;;;1999.90;999.90;;;9.90;99.90;;;;;;4955527;29;20268;-76
2020/12/13 14:17:11;;;;;;;1999.90;999.90;;;9.90;99.90;;;;;;4955487;29;20710;-76
2020/12/13 14:19:39;;;;;;;1999.90;999.90;;;9.90;99.90;;;;;;4955365;29;20308;-76
2020/12/13 14:22:06;;;;;;;1999.90;999.90;;;9.70;99.90;;;;;;4955896;29;20213;-75
2020/12/13 14:24:33;;;;;;;1999.90;999.90;;;10.00;99.90;;;;;;4957483;29;20205;-78
2020/12/13 14:27:01;;;;;;;1999.90;999.90;;;9.90;99.90;;;;;;4956842;29;20201;-75
2020/12/13 14:29:28;;;;;;;1999.90;999.90;;;9.90;99.90;;;;;;4955065;29;20287;-76
2020/12/13 14:31:54;;;;;;;1999.90;999.90;;;9.80;99.90;;;;;;4955352;29;20209;-75
2020/12/13 14:34:22;;;;;;;1999.90;999.90;;;10.00;99.90;;;;;;4955648;29;20581;-75
2020/12/13 14:36:52;;;;;;;1999.90;999.90;;;9.90;99.90;;;;;;4955459;29;20221;-75
2020/12/13 14:39:20;;;;;;;1999.90;999.90;;;10.00;99.90;;;;;;4954960;29;20710;-73
2020/12/13 14:41:51;;;;;;;1999.90;999.90;;;;;;;;;;4955389;29;20220;-74
2020/12/13 14:44:19;;;;;;;1999.90;999.90;;;;;;;;;;4955204;29;20252;-73
2020/12/13 14:46:46;;;;;;;1999.90;999.90;;;9.80;99.90;;;;;;4955396;29;20628;-73
2020/12/13 14:49:14;;;;;;;1999.90;999.90;;;9.80;99.90;;;;;;4955228;29;20236;-74
2020/12/13 14:51:42;;;;;;;1999.90;999.90;;;;;;;;;;4955084;29;20208;-73
2020/12/13 14:54:09;;;;;;;1999.90;999.90;;;9.80;99.90;;;;;;4955196;29;20662;-73
2020/12/13 14:56:37;;;;;;;1999.90;999.90;;;9.80;99.90;;;;;;4954693;29;20224;-74
2020/12/13 14:59:04;;;;;;;1999.90;999.90;;;9.80;99.90;;;;;;4954282;29;20280;-74
2020/12/13 15:01:31;;;;;;;1999.90;999.90;;;9.80;99.90;;;;;;4952425;29;20216;-70
2020/12/13 15:03:58;;;;;;;1999.90;999.90;;;9.80;99.90;;;;;;4954218;29;20613;-73
2020/12/13 15:06:28;;;;;;;1999.90;999.90;;;9.70;99.90;;;;;;4955208;29;20300;-76
2020/12/13 15:08:57;;;;;;;1999.90;999.90;;;9.70;99.90;;;;;;4954007;29;20225;-75
2020/12/13 15:11:27;;;;;;;1999.90;999.90;;;9.70;99.90;;;;;;4954101;29;20283;-75
2020/12/13 15:14:00;;;;;;;1999.90;999.90;;;9.70;99.90;;;;;;4954850;29;20205;-76
2020/12/13 15:19:18;;;;;;;1999.90;999.90;;;9.70;99.90;;;;;;4950266;29;20233;-77
2020/12/13 15:21:48;;;;;;;1999.90;999.90;;;9.70;99.90;;;;;;4954717;29;20617;-76
2020/12/13 15:24:16;;;;;;;1999.90;999.90;;;9.60;99.90;;;;;;4954520;29;20207;-77
2020/12/13 15:26:43;;;;;;;1999.90;999.90;;;9.70;99.90;;;;;;4954576;29;20201;-77
2020/12/13 15:29:10;;;;;;;1999.90;999.90;;;9.70;99.90;;;;;;4951378;29;20224;-77
2020/12/13 15:31:38;;;;;;;1999.90;999.90;;;9.70;99.90;;;;;;4954064;29;20198;-77
2020/12/13 15:34:05;;;;;;;1999.90;999.90;;;9.70;99.90;;;;;;4954073;29;20745;-78
2020/12/13 15:36:32;;;;;;;1999.90;999.90;;;9.50;99.90;;;;;;4954976;29;20225;-77
2020/12/13 15:39:00;;;;;;;1999.90;999.90;;;;;;;;;;4949750;29;20237;-79
2020/12/13 15:41:28;;;;;;;1999.90;999.90;;;9.70;99.90;;;;;;4956903;29;20671;-79
2020/12/13 15:43:55;;;;;;;1999.90;999.90;;;9.70;99.90;;;;;;4957612;29;20209;-79
2020/12/13 15:46:21;;;;;;;1999.90;999.90;;;9.80;99.90;;;;;;4957516;29;20282;-79
2020/12/13 15:48:48;;;;;;;1999.90;999.90;;;9.70;99.90;;;;;;4956819;29;20724;-79
2020/12/13 15:51:15;;;;;;;1999.90;999.90;;;9.70;99.90;;;;;;4956920;29;20249;-79
2020/12/13 15:53:44;;;;;;;1999.90;999.90;;;9.70;99.90;;;;;;4957539;29;20210;-78
2020/12/13 15:56:11;;;;;;;1999.90;999.90;;;9.70;99.90;;;;;;4957105;29;20225;-78
2020/12/13 15:58:40;;;;;;;1999.90;999.90;;;9.70;99.90;;;;;;4956414;29;20283;-80
2020/12/13 16:01:07;;;;;;;1999.90;999.90;;;9.80;99.90;;;;;;4956563;29;20217;-77
2020/12/13 16:03:35;;;;;;;1999.90;999.90;;;;;;;;;;4956817;29;20205;-78
2020/12/13 16:06:04;;;;;;;1999.90;999.90;;;9.80;99.90;;;;;;4955096;29;20204;-77
2020/12/13 16:08:32;;;;;;;1999.90;999.90;;;9.70;99.90;;;;;;4954651;29;20229;-78
2020/12/13 16:10:59;;;;;;;1999.90;999.90;;;9.70;99.90;;;;;;4954009;29;20209;-77
2020/12/13 16:13:27;;;;;;;1999.90;999.90;;;9.90;99.90;;;;;;4953651;29;20213;-76
2020/12/13 16:15:57;;;;;;;1999.90;999.90;;;9.80;99.90;;;;;;4953285;29;20221;-77
2020/12/13 16:18:24;;;;;;;1999.90;999.90;;;9.80;99.90;;;;;;4953098;29;20658;-76
2020/12/13 16:20:53;;;;;;;1999.90;999.90;;;9.80;99.90;;;;;;4956705;29;20209;-76
2020/12/13 16:23:20;;;;;;;1999.90;999.90;;;9.90;99.90;;;;;;4954363;29;20201;-76
2020/12/13 16:25:47;;;;;;;1999.90;999.90;;;9.60;99.90;;;;;;4953360;29;20213;-77
2020/12/13 16:28:14;;;;;;;1999.90;999.90;;;9.80;99.90;;;;;;4954430;28;20641;-77
2020/12/13 16:30:41;;;;;;;1999.90;999.90;;;9.80;99.90;;;;;;4957534;29;20690;-77
2020/12/13 16:33:09;;;;;;;1999.90;999.90;;;9.80;99.90;;;;;;4958996;29;20212;-78
2020/12/13 16:35:36;;;;;;;1999.90;999.90;;;9.80;99.90;;;;;;4958343;29;20263;-76
2020/12/13 16:38:06;;;;;;;1999.90;999.90;;;9.80;99.90;;;;;;4957675;29;20229;-76
2020/12/13 16:40:36;;;;;;;1999.90;999.90;;;9.80;99.90;;;;;;4958089;29;20216;-77
2020/12/13 16:45:48;;;;;;;1999.90;999.90;;;;;;;;;;4944804;29;20663;-79
2020/12/13 16:48:21;;;;;;;1999.90;999.90;;;9.80;99.90;;;;;;4960762;29;20287;-78
2020/12/13 16:51:01;;;;;;;1999.90;999.90;;;9.80;99.90;;;;;;4960395;29;20205;-78
2020/12/13 16:53:59;;;;;;;1999.90;999.90;;;9.80;99.90;;;;;;4959773;29;20670;-78
2020/12/13 16:56:20;;;;;;;1999.90;999.90;;;;;;;;;;4957508;29;20232;-78
2020/12/13 16:58:47;;;;;;;1999.90;999.90;;;;;;;;;;4960914;29;20292;-78
2020/12/13 17:01:14;;;;;;;1999.90;999.90;;;9.80;99.90;;;;;;4957986;28;20245;-77
2020/12/13 17:03:43;;;;;;;1999.90;999.90;;;;;;;;;;4959439;29;20221;-78
2020/12/13 17:06:10;;;;;;;1999.90;999.90;;;9.70;99.90;;;;;;4957611;29;20205;-78
2020/12/13 17:08:37;;;;;;;1999.90;999.90;;;9.70;99.90;;;;;;4956957;29;20651;-77
2020/12/13 17:11:04;;;;;;;1999.90;999.90;;;9.70;99.90;;;;;;4957518;29;20271;-76
2020/12/13 17:13:33;;;;;;;1999.90;999.90;;;9.70;99.90;;;;;;4941003;29;20229;-77
2020/12/13 17:16:01;;;;;;;1999.90;999.90;;;;;;;;;;4956935;29;20251;-78
2020/12/13 17:18:28;;;;;;;1999.90;999.90;;;9.70;99.90;;;;;;4955943;29;20241;-77
2020/12/13 17:20:56;;;;;;;1999.90;999.90;;;9.70;99.90;;;;;;4956831;29;20759;-76
2020/12/13 17:23:23;;;;;;;1999.90;999.90;;;9.70;99.90;;;;;;4967487;29;20232;-77
2020/12/13 17:25:50;;;;;;;1999.90;999.90;;;9.60;99.90;;;;;;4962005;29;20276;-77
2020/12/13 17:28:17;;;;;;;1999.90;999.90;;;9.70;99.90;;;;;;4956941;29;20228;-77
2020/12/13 17:30:44;;;;;;;1999.90;999.90;;;9.50;99.90;;;;;;4956651;29;20675;-77
2020/12/13 17:33:11;;;;;;;1999.90;999.90;;;9.50;99.90;;;;;;4958219;29;20206;-77
2020/12/13 17:35:38;;;;;;;1999.90;999.90;;;9.50;99.90;;;;;;4958559;29;20248;-77
2020/12/13 17:38:06;;;;;;;1999.90;999.90;;;;;;;;;;4959030;29;20226;-77
2020/12/13 17:40:34;;;;;;;1999.90;999.90;;;;;;;;;;4948343;29;20257;-77
2020/12/13 17:43:04;;;;;;;1999.90;999.90;;;;;;;;;;4956322;29;20252;-76
2020/12/13 17:45:34;;;;;;;1999.90;999.90;;;;;;;;;;4954061;29;20217;-76
2020/12/13 17:48:03;;;;;;;1999.90;999.90;;;;;;;;;;4964024;28;20287;-77
2020/12/13 17:50:52;;;;;;;1999.90;999.90;;;;;;;;;;4975560;28;20205;-76
2020/12/13 17:53:31;;;;;;;1999.90;999.90;;;9.30;99.90;;;;;;4967281;28;20720;-76
2020/12/13 17:56:07;;;;;;;1999.90;999.90;;;9.30;99.90;;;;;;4959784;28;20197;-76
2020/12/13 17:58:47;;;;;;;1999.90;999.90;;;9.20;99.90;;;;;;4960701;28;20227;-76
2020/12/13 18:01:14;;;;;;;1999.90;999.90;;;;;;;;;;4959368;28;20202;-77
2020/12/13 18:03:47;;;;;;;1999.90;999.90;;;9.40;99.90;;;;;;4955296;29;20749;-77
2020/12/13 18:06:14;;;;;;;1999.90;999.90;;;9.30;99.90;;;;;;4955284;29;20201;-77
2020/12/13 18:08:42;;;;;;;1999.90;999.90;;;;;;;;;;4954600;29;20233;-77
2020/12/13 18:11:10;;;;;;;1999.90;999.90;;;9.40;99.90;;;;;;4954801;29;20210;-75
2020/12/13 18:13:40;;;;;;;1999.90;999.90;;;9.40;99.90;;;;;;4955244;29;20214;-75
2020/12/13 18:16:08;;;;;;;1999.90;999.90;;;9.40;99.90;;;;;;4955104;29;20217;-76
2020/12/13 18:18:35;;;;;;;1999.90;999.90;;;9.50;99.90;;;;;;4974394;23;20216;-78
2020/12/13 18:21:04;;;;;;;1999.90;999.90;;;9.40;99.90;;;;;;4976173;28;20197;-78
2020/12/13 18:23:35;;;;;;;1999.90;999.90;;;9.40;99.90;;;;;;4971425;28;20194;-77
2020/12/13 18:26:02;;;;;;;1999.90;999.90;;;9.50;99.90;;;;;;4968160;28;20197;-77
2020/12/13 18:28:29;;;;;;;1999.90;999.90;;;9.40;99.90;;;;;;4964588;28;20625;-77
2020/12/13 18:30:56;;;;;;;1999.90;999.90;;;9.50;99.90;;;;;;4954448;29;20210;-78
2020/12/13 18:33:23;;;;;;;1999.90;999.90;;;9.60;99.90;;;;;;4957783;29;20296;-77
2020/12/13 18:35:50;;;;;;;1999.90;999.90;;;9.90;99.90;;;;;;4958047;29;20732;-78